PVC weather

Provincetown Municipal Airport
Provincetown, Massachusetts, United States

Public forecast

Using degrees Fahrenheit for public forecast. Weather courtesy of forecast.io.

METAR (pilot weather report)

Retrieved 2019/09/16 18:56 UTC (47 minutes ago):

KPVC 161856Z AUTO 01009KT 10SM CLR 18/11 A3002 RMK AO2 SLP165 T01830111 PNO $

TAF (pilot weather forecast)

Forecast is more than 6 hours old.

Closest forecast is Barnstable Municipal Boardman Polando Field, 24.3 nm (45.0 km) S. Retrieved 2019/09/16 12:51 UTC (7 hours ago):

TAF KHYA 161147Z 1612/1712 35004KT P6SM SCT060 BKN120 FM161900 32005KT P6SM SCT250 FM162100 18005KT P6SM SCT250 FM170000 21004KT P6SM FEW250 FM170200 27004KT P6SM SKC FM170400 31004KT P6SM SKC